CheckWX is a tool to help pilots better visualize weather data.  It is not intended as a substitute for an official pre-flight weather briefing.

11:34:14 UTC

KATL TAF
Hartsfield - Jackson Atlanta International Airport
Atlanta, Georgia, USA
KATL 120959Z 1210/1312 08008KT P6SM SKC FM121500 09012G19KT P6SM FEW100 SCT250 FM122000 09012G20KT P6SM SCT040 BKN080 FM122200 08012KT P6SM VCSH FEW025 BKN040 PROB30 1222/1302 5SM SHRA OVC025 FM130200 09011KT 4SM -SHRA SCT007 OVC015 FM130600 08011KT 6SM -SHRA OVC007

Dec-12@
10:00 UTC

Dec-12 @ 10:00 UTC

Dec-12@
15:00 UTC

Dec-12 @ 15:00 UTC

KATL 120959Z 1210/1312 08008KT P6SM SKC
Wind
  • 080° at 8 KTS
Cloud Levels
  • Clear skies

Dec-12@
15:00 UTC

Dec-12 @ 15:00 UTC

Dec-12@
20:00 UTC

Dec-12 @ 20:00 UTC

FM121500 09012G19KT P6SM FEW100 SCT250

From

From Standard forecast or significant change

Wind
  • 090° at 12 KTS
  • {Gusting to 19 KTS
Cloud Levels
  • Few at 10,000' AGL
  • Scattered at 25,000' AGL

Dec-12@
20:00 UTC

Dec-12 @ 20:00 UTC

Dec-12@
22:00 UTC

Dec-12 @ 22:00 UTC

FM122000 09012G20KT P6SM SCT040 BKN080

From

From Standard forecast or significant change

Wind
  • 090° at 12 KTS
  • {Gusting to 20 KTS
Cloud Levels
  • Scattered at 4,000' AGL
  • Broken at 8,000' AGL

Dec-12@
22:00 UTC

Dec-12 @ 22:00 UTC

Dec-13@
02:00 UTC

Dec-13 @ 02:00 UTC

FM122200 08012KT P6SM VCSH FEW025 BKN040

From

From Standard forecast or significant change

Wind
  • 080° at 12 KTS
Cloud Levels
  • Few at 2,500' AGL
  • Broken at 4,000' AGL

Dec-12@
22:00 UTC

Dec-12 @ 22:00 UTC

Dec-13@
02:00 UTC

Dec-13 @ 02:00 UTC

PROB30 1222/1302 5SM SHRA OVC025

Probable - 30% Likelihood

Probable - 30% Likelihood during this time.

Conditions
Rain
Cloud Levels
  • Overcast at 2,500' AGL

Dec-13@
02:00 UTC

Dec-13 @ 02:00 UTC

Dec-13@
06:00 UTC

Dec-13 @ 06:00 UTC

FM130200 09011KT 4SM -SHRA SCT007 OVC015

From

From Standard forecast or significant change

Wind
  • 090° at 11 KTS
Conditions
Light Rain
Cloud Levels
  • Scattered at 700' AGL
  • Overcast at 1,500' AGL

Dec-13@
06:00 UTC

Dec-13 @ 06:00 UTC

Dec-13@
12:00 UTC

Dec-13 @ 12:00 UTC

FM130600 08011KT 6SM -SHRA OVC007

From

From Standard forecast or significant change

Wind
  • 080° at 11 KTS
Conditions
Light Rain
Cloud Levels
  • Overcast at 700' AGL